createdAt,value
2022-12-29T00:00:09.319Z,99.99
2022-12-29T00:01:09.304Z,99.99
2022-12-29T00:02:09.382Z,99.99
2022-12-29T00:03:09.314Z,99.99
2022-12-29T00:04:14.561Z,99.99
2022-12-29T00:05:10.377Z,99.99
2022-12-29T00:06:09.167Z,99.99
2022-12-29T00:07:09.381Z,99.99
2022-12-29T00:08:09.153Z,99.99
2022-12-29T00:09:09.151Z,99.99
2022-12-29T00:10:09.181Z,99.99
2022-12-29T00:11:09.134Z,99.99
2022-12-29T00:12:09.198Z,99.99
2022-12-29T00:13:09.096Z,99.99
2022-12-29T00:14:09.283Z,99.99
2022-12-29T00:15:09.069Z,99.99
2022-12-29T00:16:09.280Z,99.99
2022-12-29T00:17:09.076Z,99.99
2022-12-29T00:18:09.149Z,99.99
2022-12-29T00:19:09.241Z,99.99
2022-12-29T00:20:09.014Z,99.99
2022-12-29T00:21:09.050Z,99.99
2022-12-29T00:22:08.996Z,99.99
2022-12-29T00:23:09.041Z,99.99
2022-12-29T00:24:08.985Z,99.99
2022-12-29T00:25:08.958Z,99.99
2022-12-29T00:26:08.967Z,99.99
2022-12-29T00:27:08.969Z,99.99
2022-12-29T00:28:08.957Z,99.99
2022-12-29T00:29:08.952Z,99.99
2022-12-29T00:30:08.907Z,99.99
2022-12-29T00:31:08.959Z,99.99
2022-12-29T00:32:08.935Z,99.99
2022-12-29T00:33:08.896Z,99.99
2022-12-29T00:34:08.960Z,99.99
2022-12-29T00:35:08.861Z,99.99
2022-12-29T00:36:08.946Z,99.99
2022-12-29T00:37:08.831Z,99.99
2022-12-29T00:38:08.958Z,99.99
2022-12-29T00:39:08.855Z,99.99
2022-12-29T00:40:08.969Z,99.99
2022-12-29T00:41:08.780Z,99.99
2022-12-29T00:42:08.976Z,99.99
2022-12-29T00:43:08.768Z,99.99
2022-12-29T00:44:08.843Z,99.99
2022-12-29T00:45:08.734Z,99.99
2022-12-29T00:46:11.761Z,99.99
2022-12-29T00:47:09.777Z,99.99
2022-12-29T00:48:08.727Z,99.99
2022-12-29T00:49:08.714Z,99.99
2022-12-29T00:50:08.895Z,99.99
2022-12-29T00:51:08.730Z,99.99
2022-12-29T00:52:08.691Z,99.99
2022-12-29T00:53:08.651Z,99.99
2022-12-29T00:54:08.654Z,99.99
2022-12-29T00:55:08.667Z,99.99
2022-12-29T00:56:08.664Z,99.99
2022-12-29T00:57:08.657Z,99.99
2022-12-29T00:58:08.688Z,99.99
2022-12-29T00:59:08.594Z,99.99
2022-12-29T01:00:08.590Z,99.99
2022-12-29T01:01:08.617Z,99.99
2022-12-29T01:02:08.706Z,99.99
2022-12-29T01:03:08.615Z,99.99
2022-12-29T01:04:08.756Z,99.99
2022-12-29T01:05:08.505Z,99.99
2022-12-29T01:06:08.533Z,99.99
2022-12-29T01:07:08.596Z,99.99
2022-12-29T01:08:08.484Z,99.99
2022-12-29T01:09:08.502Z,99.99
2022-12-29T01:10:08.473Z,99.99
2022-12-29T01:11:08.477Z,99.99
2022-12-29T01:12:08.456Z,99.99
2022-12-29T01:13:08.580Z,99.99
2022-12-29T01:14:08.583Z,99.99
2022-12-29T01:15:08.436Z,99.99
2022-12-29T01:16:08.663Z,99.99
2022-12-29T01:17:08.382Z,99.99
2022-12-29T01:18:08.408Z,99.99
2022-12-29T01:19:08.769Z,99.99
2022-12-29T01:20:08.473Z,99.99
2022-12-29T01:21:08.353Z,99.99
2022-12-29T01:22:08.362Z,99.99
2022-12-29T01:23:08.336Z,99.99
2022-12-29T01:24:08.652Z,99.99
2022-12-29T01:25:08.299Z,99.99
2022-12-29T01:26:08.287Z,99.99
2022-12-29T01:27:08.291Z,99.99
2022-12-29T01:28:08.284Z,99.99
2022-12-29T01:29:08.287Z,99.99
2022-12-29T01:30:08.367Z,99.99
2022-12-29T01:31:08.288Z,99.99
2022-12-29T01:32:08.293Z,99.99
2022-12-29T01:33:08.204Z,99.99
2022-12-29T01:34:08.306Z,99.99
2022-12-29T01:35:08.183Z,99.99
2022-12-29T01:36:08.376Z,99.99
2022-12-29T01:37:08.184Z,99.99
2022-12-29T01:38:08.335Z,99.99
2022-12-29T01:39:08.147Z,99.99
2022-12-29T01:40:10.398Z,99.99
2022-12-29T01:41:08.147Z,99.99
2022-12-29T01:42:08.122Z,99.99
2022-12-29T01:43:08.131Z,99.99
2022-12-29T01:44:08.132Z,99.99
2022-12-29T01:45:08.084Z,99.99
2022-12-29T01:46:08.225Z,99.99
2022-12-29T01:47:08.050Z,99.99
2022-12-29T01:48:08.060Z,99.99
2022-12-29T01:49:08.063Z,99.99
2022-12-29T01:50:08.068Z,99.99
2022-12-29T01:51:08.028Z,99.99
2022-12-29T01:52:08.228Z,99.99
2022-12-29T01:53:08.018Z,99.99
2022-12-29T01:54:07.995Z,99.99
2022-12-29T01:55:07.980Z,99.99
2022-12-29T01:56:07.981Z,99.99
2022-12-29T01:57:07.978Z,99.99
2022-12-29T01:58:08.060Z,99.99
2022-12-29T01:59:07.938Z,99.99
2022-12-29T02:00:07.935Z,99.99
2022-12-29T02:01:07.976Z,99.99
2022-12-29T02:02:08.035Z,99.99
2022-12-29T02:03:07.966Z,99.99
2022-12-29T02:04:07.946Z,99.99
2022-12-29T02:05:07.853Z,99.99
2022-12-29T02:06:07.910Z,99.99
2022-12-29T02:07:07.838Z,99.99
2022-12-29T02:08:07.974Z,99.99
2022-12-29T02:09:07.834Z,99.99
2022-12-29T02:10:07.835Z,99.99
2022-12-29T02:11:07.825Z,99.99
2022-12-29T02:12:07.969Z,99.99
2022-12-29T02:13:07.798Z,99.99
2022-12-29T02:14:07.993Z,99.99
2022-12-29T02:15:07.771Z,99.99
2022-12-29T02:16:09.089Z,99.99
2022-12-29T02:17:07.741Z,99.99
2022-12-29T02:18:07.791Z,99.99
2022-12-29T02:19:07.730Z,99.99
2022-12-29T02:20:07.799Z,99.99
2022-12-29T02:21:07.684Z,99.99
2022-12-29T02:22:07.723Z,99.99
2022-12-29T02:23:07.650Z,99.99
2022-12-29T02:24:07.684Z,99.99
2022-12-29T02:25:07.652Z,99.99
2022-12-29T02:26:07.838Z,99.99
2022-12-29T02:27:07.635Z,99.99
2022-12-29T02:28:07.702Z,99.99
2022-12-29T02:29:07.585Z,99.99
2022-12-29T02:30:07.680Z,99.99
2022-12-29T02:31:07.687Z,99.99
2022-12-29T02:32:07.766Z,99.99
2022-12-29T02:33:07.680Z,99.99
2022-12-29T02:34:07.636Z,99.99
2022-12-29T02:35:07.694Z,99.99
2022-12-29T02:36:07.525Z,99.99
2022-12-29T02:37:07.728Z,99.99
2022-12-29T02:38:07.713Z,99.99
2022-12-29T02:39:07.498Z,99.99
2022-12-29T02:40:07.515Z,99.99
2022-12-29T02:41:07.475Z,99.99
2022-12-29T02:42:07.462Z,99.99
2022-12-29T02:43:07.516Z,99.99
2022-12-29T02:44:07.444Z,99.99
2022-12-29T02:45:07.432Z,99.99
2022-12-29T02:46:07.544Z,99.99
2022-12-29T02:47:07.614Z,99.99
2022-12-29T02:48:07.408Z,99.99
2022-12-29T02:49:07.419Z,99.99
2022-12-29T02:50:07.401Z,99.99
2022-12-29T02:51:07.377Z,99.99
2022-12-29T02:52:07.386Z,99.99
2022-12-29T02:53:07.347Z,99.99
2022-12-29T02:54:07.340Z,99.99
2022-12-29T02:55:07.343Z,99.99
2022-12-29T02:56:07.323Z,99.99
2022-12-29T02:57:07.291Z,99.99
2022-12-29T02:58:07.297Z,99.99
2022-12-29T02:59:07.273Z,99.99
2022-12-29T03:00:07.302Z,99.99
2022-12-29T03:01:07.293Z,99.99
2022-12-29T03:02:07.403Z,99.99
2022-12-29T03:03:07.278Z,99.99
2022-12-29T03:04:07.229Z,99.99
2022-12-29T03:05:07.212Z,99.99
2022-12-29T03:06:07.220Z,99.98
2022-12-29T03:07:07.187Z,99.93
2022-12-29T03:08:07.188Z,99.99
2022-12-29T03:09:07.190Z,99.47
2022-12-29T03:10:08.165Z,99.68
2022-12-29T03:11:07.153Z,99.63
2022-12-29T03:12:07.135Z,99.47
2022-12-29T03:13:07.149Z,99.27
2022-12-29T03:14:07.117Z,99.11
2022-12-29T03:15:07.104Z,98.61
2022-12-29T03:16:07.377Z,98.65
2022-12-29T03:17:07.152Z,98.50
2022-12-29T03:18:07.071Z,98.10
2022-12-29T03:19:07.149Z,98.35
2022-12-29T03:20:07.071Z,98.20
2022-12-29T03:21:07.058Z,97.79
2022-12-29T03:22:07.036Z,98.20
2022-12-29T03:23:07.020Z,98.50
2022-12-29T03:24:07.011Z,97.79
2022-12-29T03:25:07.023Z,97.79
2022-12-29T03:26:06.995Z,97.63
2022-12-29T03:27:06.995Z,98.20
2022-12-29T03:28:06.988Z,97.69
2022-12-29T03:29:06.949Z,97.83
2022-12-29T03:30:06.943Z,97.28
2022-12-29T03:31:06.963Z,97.69
2022-12-29T03:32:08.043Z,97.38
2022-12-29T03:33:06.931Z,96.87
2022-12-29T03:34:06.901Z,97.28
2022-12-29T03:35:06.917Z,97.17
2022-12-29T03:36:06.901Z,97.49
2022-12-29T03:37:06.869Z,96.87
2022-12-29T03:38:06.878Z,96.87
2022-12-29T03:39:06.877Z,96.46
2022-12-29T03:40:06.839Z,95.39
2022-12-29T03:41:06.816Z,95.29
2022-12-29T03:42:06.831Z,95.54
2022-12-29T03:43:06.808Z,95.60
2022-12-29T03:44:07.873Z,95.75
2022-12-29T03:45:06.787Z,96.15
2022-12-29T03:46:06.890Z,96.36
2022-12-29T03:47:06.749Z,96.87
2022-12-29T03:48:06.770Z,97.08
2022-12-29T03:49:06.748Z,97.49
2022-12-29T03:50:06.725Z,97.38
2022-12-29T03:51:06.744Z,97.99
2022-12-29T03:52:06.707Z,97.69
2022-12-29T03:53:06.689Z,97.99
2022-12-29T03:54:06.713Z,97.99
2022-12-29T03:55:06.663Z,97.69
2022-12-29T03:56:06.689Z,98.24
2022-12-29T03:57:06.642Z,97.79
2022-12-29T03:58:06.675Z,98.20
2022-12-29T03:59:06.631Z,97.08
2022-12-29T04:00:06.628Z,97.79
2022-12-29T04:01:06.692Z,98.86
2022-12-29T04:02:06.754Z,98.71
2022-12-29T04:03:06.706Z,98.61
2022-12-29T04:04:06.607Z,98.75
2022-12-29T04:05:06.562Z,98.75
2022-12-29T04:06:06.567Z,98.71
2022-12-29T04:07:06.550Z,98.75
2022-12-29T04:08:06.545Z,98.71
2022-12-29T04:09:06.527Z,98.35
2022-12-29T04:10:06.543Z,98.75
2022-12-29T04:11:06.484Z,98.45
2022-12-29T04:12:06.482Z,98.65
2022-12-29T04:13:06.488Z,98.35
2022-12-29T04:14:06.456Z,98.61
2022-12-29T04:15:06.463Z,98.55
2022-12-29T04:16:06.494Z,98.45
2022-12-29T04:17:06.431Z,98.65
2022-12-29T04:18:06.410Z,98.14
2022-12-29T04:19:06.421Z,98.30
2022-12-29T04:20:06.389Z,98.61
2022-12-29T04:21:06.422Z,99.78
2022-12-29T04:22:06.374Z,99.47
2022-12-29T04:23:06.405Z,99.78
2022-12-29T04:24:06.358Z,99.99
2022-12-29T04:25:06.335Z,99.99
2022-12-29T04:26:06.326Z,99.99
2022-12-29T04:27:06.337Z,99.99
2022-12-29T04:28:06.309Z,99.99
2022-12-29T04:29:06.293Z,99.99
2022-12-29T04:30:06.303Z,99.99
2022-12-29T04:31:06.374Z,99.99
2022-12-29T04:32:06.286Z,99.99
2022-12-29T04:33:06.275Z,99.99
2022-12-29T04:34:06.248Z,99.99
2022-12-29T04:35:06.245Z,99.99
2022-12-29T04:36:06.237Z,99.99
2022-12-29T04:37:06.219Z,99.99
2022-12-29T04:38:06.220Z,99.99
2022-12-29T04:39:06.266Z,99.99
2022-12-29T04:40:06.206Z,99.99
2022-12-29T04:41:06.174Z,99.99
2022-12-29T04:42:06.173Z,99.99
2022-12-29T04:43:06.197Z,99.99
2022-12-29T04:44:06.122Z,99.99
2022-12-29T04:45:06.131Z,99.99
2022-12-29T04:46:06.142Z,99.99
2022-12-29T04:47:06.111Z,99.99
2022-12-29T04:48:06.085Z,99.99
2022-12-29T04:49:06.121Z,99.99
2022-12-29T04:50:06.074Z,99.99
2022-12-29T04:51:06.068Z,99.99
2022-12-29T04:52:06.098Z,99.99
2022-12-29T04:53:06.045Z,99.99
2022-12-29T04:54:06.064Z,99.99
2022-12-29T04:55:06.057Z,99.99
2022-12-29T04:56:06.038Z,99.99
2022-12-29T04:57:05.993Z,99.99
2022-12-29T04:58:05.978Z,99.99
2022-12-29T04:59:05.980Z,99.99
2022-12-29T05:00:05.968Z,99.99
2022-12-29T05:01:05.948Z,99.99
2022-12-29T05:02:05.992Z,99.99
2022-12-29T05:03:06.173Z,99.99
2022-12-29T05:04:05.924Z,99.99
2022-12-29T05:05:05.939Z,99.99
2022-12-29T05:06:05.904Z,99.99
2022-12-29T05:07:05.893Z,99.99
2022-12-29T05:08:05.867Z,99.99
2022-12-29T05:09:05.854Z,99.99
2022-12-29T05:10:05.868Z,99.99
2022-12-29T05:11:05.854Z,99.99
2022-12-29T05:12:05.831Z,99.99
2022-12-29T05:13:05.833Z,99.99
2022-12-29T05:14:05.822Z,99.99
2022-12-29T05:15:05.823Z,99.99
2022-12-29T05:16:06.900Z,99.99
2022-12-29T05:17:05.768Z,99.99
2022-12-29T05:18:05.768Z,99.99
2022-12-29T05:19:05.768Z,99.99
2022-12-29T05:20:05.743Z,99.99
2022-12-29T05:21:05.757Z,99.99
2022-12-29T05:22:05.709Z,99.99
2022-12-29T05:23:05.725Z,99.82
2022-12-29T05:24:05.691Z,99.99
2022-12-29T05:25:05.716Z,99.98
2022-12-29T05:26:05.696Z,98.86
2022-12-29T05:27:05.684Z,99.68
2022-12-29T05:28:05.659Z,98.35
2022-12-29T05:29:05.647Z,98.61
2022-12-29T05:30:05.624Z,97.69
2022-12-29T05:31:05.653Z,97.89
2022-12-29T05:32:05.626Z,96.97
2022-12-29T05:33:05.618Z,96.15
2022-12-29T05:34:05.591Z,95.75
2022-12-29T05:35:05.573Z,95.54
2022-12-29T05:36:05.582Z,95.75
2022-12-29T05:37:05.586Z,95.84
2022-12-29T05:38:05.594Z,96.25
2022-12-29T05:39:05.546Z,97.11
2022-12-29T05:40:05.528Z,98.18
2022-12-29T05:41:05.508Z,98.90
2022-12-29T05:42:05.529Z,99.91
2022-12-29T05:43:05.540Z,99.99
2022-12-29T05:44:05.485Z,99.99
2022-12-29T05:45:05.477Z,99.99
2022-12-29T05:46:06.508Z,99.99
2022-12-29T05:47:05.537Z,99.99
2022-12-29T05:48:05.469Z,99.99
2022-12-29T05:49:05.443Z,99.99
2022-12-29T05:50:05.413Z,99.99
2022-12-29T05:51:05.403Z,99.99
2022-12-29T05:52:05.391Z,99.99
2022-12-29T05:53:05.394Z,99.99
2022-12-29T05:54:05.380Z,99.99
2022-12-29T05:55:05.370Z,99.99
2022-12-29T05:56:05.343Z,99.99
2022-12-29T05:57:05.341Z,99.99
2022-12-29T05:58:05.329Z,99.99
2022-12-29T05:59:05.334Z,99.99
2022-12-29T06:00:05.406Z,99.99
2022-12-29T06:01:05.295Z,99.99
2022-12-29T06:02:05.516Z,99.99
2022-12-29T06:03:05.461Z,99.99
2022-12-29T06:04:05.316Z,99.99
2022-12-29T06:05:06.289Z,99.99
2022-12-29T06:06:05.241Z,99.99
2022-12-29T06:07:05.233Z,99.99
2022-12-29T06:08:05.207Z,99.99
2022-12-29T06:09:05.206Z,99.99
2022-12-29T06:10:05.216Z,99.99
2022-12-29T06:11:05.213Z,99.99
2022-12-29T06:12:05.162Z,99.99
2022-12-29T06:13:05.160Z,99.99
2022-12-29T06:14:05.169Z,99.99
2022-12-29T06:15:05.159Z,99.99
2022-12-29T06:16:05.148Z,99.99
2022-12-29T06:17:05.143Z,99.99
2022-12-29T06:18:05.096Z,99.99
2022-12-29T06:19:05.103Z,99.99
2022-12-29T06:20:05.116Z,99.99
2022-12-29T06:21:05.076Z,99.99
2022-12-29T06:22:05.068Z,99.99
2022-12-29T06:23:05.071Z,99.99
2022-12-29T06:24:05.070Z,99.99
2022-12-29T06:25:05.590Z,99.99
2022-12-29T06:26:05.045Z,99.99
2022-12-29T06:27:05.005Z,99.99
2022-12-29T06:28:04.998Z,99.99
2022-12-29T06:29:04.990Z,99.99
2022-12-29T06:30:05.118Z,99.99
2022-12-29T06:31:04.990Z,99.99
2022-12-29T06:32:05.024Z,99.99
2022-12-29T06:33:04.930Z,99.99
2022-12-29T06:34:08.346Z,99.99
2022-12-29T06:35:04.944Z,99.99
2022-12-29T06:36:04.899Z,99.99
2022-12-29T06:37:04.907Z,99.99
2022-12-29T06:38:04.873Z,99.99
2022-12-29T06:39:04.895Z,99.99
2022-12-29T06:40:04.868Z,99.99
2022-12-29T06:41:04.872Z,99.99
2022-12-29T06:42:04.844Z,99.99
2022-12-29T06:43:04.841Z,99.66
2022-12-29T06:44:04.818Z,98.28
2022-12-29T06:45:05.830Z,98.69
2022-12-29T06:46:04.874Z,98.58
2022-12-29T06:47:04.820Z,98.58
2022-12-29T06:48:04.782Z,98.07
2022-12-29T06:49:04.774Z,97.97
2022-12-29T06:50:04.745Z,97.87
2022-12-29T06:51:04.763Z,97.56
2022-12-29T06:52:09.086Z,96.44
2022-12-29T06:53:05.730Z,96.54
2022-12-29T06:54:04.719Z,97.66
2022-12-29T06:55:04.702Z,96.33
2022-12-29T06:56:04.689Z,96.84
2022-12-29T06:57:04.698Z,95.57
2022-12-29T06:58:04.692Z,96.19
2022-12-29T06:59:04.660Z,95.67
2022-12-29T07:00:04.649Z,95.37
2022-12-29T07:01:04.663Z,95.88
2022-12-29T07:02:04.875Z,95.98
2022-12-29T07:03:04.805Z,95.22
2022-12-29T07:04:04.617Z,95.37
2022-12-29T07:05:04.600Z,95.22
2022-12-29T07:06:04.586Z,94.71
2022-12-29T07:07:04.575Z,95.02
2022-12-29T07:08:04.555Z,95.63
2022-12-29T07:09:04.587Z,95.98
2022-12-29T07:10:04.693Z,96.08
2022-12-29T07:11:04.536Z,95.47
2022-12-29T07:12:04.520Z,96.08
2022-12-29T07:13:04.502Z,95.78
2022-12-29T07:14:05.574Z,95.63
2022-12-29T07:15:04.519Z,95.53
2022-12-29T07:16:04.468Z,95.43
2022-12-29T07:17:04.526Z,95.63
2022-12-29T07:18:06.512Z,95.57
2022-12-29T07:19:04.452Z,95.63
2022-12-29T07:20:04.421Z,95.53
2022-12-29T07:21:04.426Z,96.08
2022-12-29T07:22:04.407Z,95.63
2022-12-29T07:23:04.393Z,95.32
2022-12-29T07:24:05.423Z,95.94
2022-12-29T07:25:04.469Z,96.19
2022-12-29T07:26:04.388Z,95.67
2022-12-29T07:27:04.352Z,95.78
2022-12-29T07:28:04.346Z,96.14
2022-12-29T07:29:04.332Z,95.98
2022-12-29T07:30:04.316Z,95.73
2022-12-29T07:31:04.302Z,95.02
2022-12-29T07:32:04.412Z,94.81
2022-12-29T07:33:04.282Z,94.71
2022-12-29T07:34:04.298Z,94.92
2022-12-29T07:35:04.277Z,94.30
2022-12-29T07:36:04.299Z,94.20
2022-12-29T07:37:04.238Z,94.51
2022-12-29T07:38:04.234Z,94.10
2022-12-29T07:39:04.229Z,94.60
2022-12-29T07:40:04.234Z,94.60
2022-12-29T07:41:05.255Z,94.60
2022-12-29T07:42:05.311Z,94.75
2022-12-29T07:43:04.180Z,94.51
2022-12-29T07:44:04.173Z,94.40
2022-12-29T07:45:04.155Z,94.14
2022-12-29T07:46:04.268Z,94.65
2022-12-29T07:47:04.277Z,94.45
2022-12-29T07:48:04.162Z,94.75
2022-12-29T07:49:04.129Z,94.55
2022-12-29T07:50:04.091Z,94.96
2022-12-29T07:51:04.109Z,94.45
2022-12-29T07:52:04.088Z,94.85
2022-12-29T07:53:04.097Z,94.65
2022-12-29T07:54:04.098Z,94.65
2022-12-29T07:55:04.041Z,94.85
2022-12-29T07:56:04.029Z,94.96
2022-12-29T07:57:04.024Z,94.55
2022-12-29T07:58:04.051Z,94.65
2022-12-29T07:59:04.006Z,94.96
2022-12-29T08:00:03.992Z,94.24
2022-12-29T08:01:04.040Z,94.34
2022-12-29T08:02:04.108Z,93.93
2022-12-29T08:03:03.977Z,93.93
2022-12-29T08:04:04.047Z,94.10
2022-12-29T08:05:03.929Z,94.34
2022-12-29T08:06:03.926Z,93.79
2022-12-29T08:07:03.947Z,93.89
2022-12-29T08:08:03.907Z,94.04
2022-12-29T08:09:11.382Z,93.79
2022-12-29T08:10:04.913Z,94.20
2022-12-29T08:11:03.881Z,94.40
2022-12-29T08:12:03.848Z,93.28
2022-12-29T08:13:03.845Z,93.18
2022-12-29T08:14:03.830Z,92.77
2022-12-29T08:15:03.822Z,93.18
2022-12-29T08:16:03.880Z,92.87
2022-12-29T08:17:03.818Z,92.15
2022-12-29T08:18:03.790Z,92.15
2022-12-29T08:19:03.765Z,92.66
2022-12-29T08:20:03.776Z,92.15
2022-12-29T08:21:03.763Z,92.46
2022-12-29T08:22:03.773Z,91.44
2022-12-29T08:23:03.770Z,90.72
2022-12-29T08:24:03.718Z,90.31
2022-12-29T08:25:03.714Z,90.00
2022-12-29T08:26:03.711Z,89.59
2022-12-29T08:27:12.085Z,89.39
2022-12-29T08:28:04.681Z,88.78
2022-12-29T08:29:03.672Z,88.57
2022-12-29T08:30:03.655Z,88.47
2022-12-29T08:37:01.703Z,88.88
2022-12-29T08:38:02.191Z,88.37
2022-12-29T08:39:01.682Z,89.18
2022-12-29T08:40:01.692Z,89.50
2022-12-29T08:41:04.204Z,89.04
2022-12-29T08:42:04.212Z,89.25
2022-12-29T08:43:02.636Z,89.04
2022-12-29T08:44:04.203Z,88.33
2022-12-29T08:45:01.626Z,89.25
2022-12-29T08:46:01.636Z,88.74
2022-12-29T08:47:01.587Z,88.74
2022-12-29T08:48:01.568Z,88.02
2022-12-29T08:49:01.554Z,88.43
2022-12-29T08:50:01.550Z,88.39
2022-12-29T08:51:24.630Z,88.33
2022-12-29T08:52:01.526Z,88.43
2022-12-29T08:53:01.525Z,87.10
2022-12-29T08:54:02.198Z,86.85
2022-12-29T08:55:01.535Z,87.77
2022-12-29T08:56:05.169Z,87.88
2022-12-29T08:57:01.474Z,86.44
2022-12-29T08:58:02.204Z,86.85
2022-12-29T08:59:01.736Z,86.90
2022-12-29T09:00:22.450Z,87.82
2022-12-29T09:01:01.432Z,86.90
2022-12-29T09:02:22.085Z,87.10
2022-12-29T09:03:03.351Z,86.29
2022-12-29T09:04:14.973Z,86.69
2022-12-29T09:05:03.253Z,86.08
2022-12-29T09:06:01.368Z,86.59
2022-12-29T09:07:01.373Z,87.00
2022-12-29T09:08:01.385Z,86.38
2022-12-29T09:09:01.725Z,86.90
2022-12-29T09:10:01.337Z,86.79
2022-12-29T09:11:04.214Z,87.96
2022-12-29T09:12:25.199Z,87.71
2022-12-29T09:13:01.294Z,87.10
2022-12-29T09:14:01.290Z,87.92
2022-12-29T09:15:01.273Z,88.02
2022-12-29T09:16:02.265Z,86.69
2022-12-29T09:17:01.261Z,86.90
2022-12-29T09:18:01.238Z,85.77
2022-12-29T09:19:01.230Z,86.29
2022-12-29T09:20:02.209Z,86.69
2022-12-29T09:21:01.233Z,87.10
2022-12-29T09:22:01.215Z,86.83
2022-12-29T09:23:01.691Z,86.08
2022-12-29T09:24:01.158Z,86.12
2022-12-29T09:25:01.697Z,86.79
2022-12-29T09:26:01.158Z,87.55
2022-12-29T09:27:03.711Z,87.10
2022-12-29T09:28:01.140Z,87.14
2022-12-29T09:29:01.692Z,87.85
2022-12-29T09:30:01.115Z,87.24
2022-12-29T09:31:07.755Z,87.76
2022-12-29T09:32:01.090Z,88.06
2022-12-29T09:33:01.083Z,87.85
2022-12-29T09:34:01.057Z,87.96
2022-12-29T09:35:01.083Z,87.96
2022-12-29T09:36:01.045Z,88.02
2022-12-29T09:37:01.091Z,88.12
2022-12-29T09:38:01.018Z,88.43
2022-12-29T09:39:01.011Z,88.12
2022-12-29T09:40:01.007Z,88.84
2022-12-29T09:41:01.004Z,88.18
2022-12-29T09:42:00.999Z,88.59
2022-12-29T09:43:00.986Z,88.79
2022-12-29T09:44:00.975Z,89.20
2022-12-29T09:45:00.940Z,89.11
2022-12-29T09:46:01.217Z,88.70
2022-12-29T09:47:01.833Z,89.31
2022-12-29T09:48:06.708Z,88.18
2022-12-29T09:49:08.702Z,88.76
2022-12-29T09:50:00.904Z,88.55
2022-12-29T09:51:00.894Z,88.24
2022-12-29T09:52:00.902Z,87.53
2022-12-29T09:53:00.855Z,87.84
2022-12-29T09:54:03.703Z,87.73
2022-12-29T09:55:05.261Z,87.12
2022-12-29T09:56:02.870Z,87.73
2022-12-29T09:57:00.827Z,86.20
2022-12-29T09:58:00.806Z,86.55
2022-12-29T09:59:00.817Z,86.76
2022-12-29T10:00:03.705Z,85.94
2022-12-29T10:01:00.815Z,85.02
2022-12-29T10:02:00.985Z,86.14
2022-12-29T10:03:01.821Z,86.20
2022-12-29T10:04:00.768Z,86.14
2022-12-29T10:05:00.726Z,85.94
2022-12-29T10:06:00.715Z,86.65
2022-12-29T10:07:30.817Z,86.14
2022-12-29T10:08:01.707Z,86.24
2022-12-29T10:09:01.201Z,85.63
2022-12-29T10:10:07.211Z,86.14
2022-12-29T10:11:00.663Z,86.55
2022-12-29T10:12:01.199Z,86.55
2022-12-29T10:13:01.197Z,86.24
2022-12-29T10:14:00.724Z,85.42
2022-12-29T10:15:01.225Z,85.32
2022-12-29T10:16:00.648Z,85.83
2022-12-29T10:17:00.587Z,85.53
2022-12-29T10:18:03.211Z,86.14
2022-12-29T10:19:00.564Z,85.32
2022-12-29T10:20:00.567Z,85.63
2022-12-29T10:21:01.207Z,86.29
2022-12-29T10:22:00.533Z,86.14
2022-12-29T10:23:01.212Z,85.94
2022-12-29T10:24:00.503Z,85.83
2022-12-29T10:25:00.522Z,86.35
2022-12-29T10:26:00.492Z,86.65
2022-12-29T10:27:03.230Z,86.18
2022-12-29T10:28:00.486Z,86.49
2022-12-29T10:29:03.206Z,86.44
2022-12-29T10:30:00.452Z,86.44
2022-12-29T10:31:08.351Z,86.24
2022-12-29T10:32:04.236Z,85.88
2022-12-29T10:33:00.431Z,86.44
2022-12-29T10:34:00.460Z,86.04
2022-12-29T10:35:01.226Z,86.04
2022-12-29T10:36:00.377Z,86.65
2022-12-29T10:37:00.415Z,86.55
2022-12-29T10:38:01.219Z,85.83
2022-12-29T10:39:21.347Z,85.83
2022-12-29T10:40:00.333Z,84.91
2022-12-29T10:41:00.352Z,84.20
2022-12-29T10:42:00.378Z,84.41
2022-12-29T10:43:00.306Z,85.02
2022-12-29T10:44:01.210Z,84.20
2022-12-29T10:45:00.281Z,84.67
2022-12-29T10:46:00.372Z,84.81
2022-12-29T10:47:00.282Z,84.71
2022-12-29T10:48:00.740Z,84.50
2022-12-29T10:49:00.232Z,83.79
2022-12-29T10:50:00.231Z,84.09
2022-12-29T10:51:02.136Z,83.69
2022-12-29T10:52:00.963Z,83.69
2022-12-29T10:53:00.223Z,84.26
2022-12-29T10:54:00.186Z,83.18
2022-12-29T10:55:00.172Z,84.09
2022-12-29T10:56:00.163Z,84.81
2022-12-29T10:57:00.165Z,83.59
2022-12-29T10:58:00.142Z,84.00
2022-12-29T10:59:00.138Z,84.67
2022-12-29T11:00:00.719Z,84.81
2022-12-29T11:01:02.775Z,84.71
2022-12-29T11:02:00.328Z,83.89
2022-12-29T11:03:00.301Z,84.50
2022-12-29T11:04:00.710Z,82.22
2022-12-29T11:05:00.076Z,83.65
2022-12-29T11:06:00.053Z,83.18
2022-12-29T11:07:00.041Z,83.14
2022-12-29T11:08:00.089Z,82.97
2022-12-29T11:09:00.023Z,82.73
2022-12-29T11:10:02.745Z,82.87
2022-12-29T11:11:00.013Z,84.09
2022-12-29T11:12:00.241Z,83.59
2022-12-29T11:13:00.001Z,83.34
2022-12-29T11:13:59.966Z,82.67
2022-12-29T11:14:59.957Z,82.83
2022-12-29T11:16:01.088Z,83.65
2022-12-29T11:17:00.011Z,82.87
2022-12-29T11:17:59.948Z,83.18
2022-12-29T11:19:00.042Z,82.67
2022-12-29T11:19:59.925Z,82.36
2022-12-29T11:20:59.888Z,82.46
2022-12-29T11:21:59.885Z,82.77
2022-12-29T11:22:59.908Z,82.01
2022-12-29T11:23:59.872Z,82.87
2022-12-29T11:24:59.848Z,83.38
2022-12-29T11:25:59.831Z,83.69
2022-12-29T11:26:59.842Z,83.48
2022-12-29T11:27:59.808Z,82.36
2022-12-29T11:29:00.845Z,82.67
2022-12-29T11:29:59.792Z,83.14
2022-12-29T11:30:59.786Z,82.42
2022-12-29T11:32:05.286Z,82.36
2022-12-29T11:33:00.716Z,81.54
2022-12-29T11:33:59.764Z,82.56
2022-12-29T11:35:00.732Z,82.83
2022-12-29T11:36:00.702Z,82.56
2022-12-29T11:36:59.719Z,82.15
2022-12-29T11:38:00.197Z,81.60
2022-12-29T11:39:00.219Z,81.34
2022-12-29T11:39:59.702Z,81.20
2022-12-29T11:41:00.214Z,82.67
2022-12-29T11:41:59.736Z,81.74
2022-12-29T11:42:59.747Z,82.87
2022-12-29T11:43:59.631Z,82.83
2022-12-29T11:44:59.624Z,82.36
2022-12-29T11:45:59.719Z,81.24
2022-12-29T11:47:00.209Z,81.71
2022-12-29T11:47:59.622Z,82.36
2022-12-29T11:48:59.597Z,81.54
2022-12-29T11:49:59.567Z,81.20
2022-12-29T11:51:00.231Z,81.30
2022-12-29T11:51:59.546Z,81.51
2022-12-29T11:53:00.210Z,81.40
2022-12-29T11:53:59.563Z,81.51
2022-12-29T11:54:59.520Z,81.81
2022-12-29T11:56:02.206Z,81.40
2022-12-29T11:57:01.246Z,82.22
2022-12-29T11:58:00.200Z,81.91
2022-12-29T11:58:59.730Z,81.71
2022-12-29T11:59:59.462Z,81.51
2022-12-29T12:01:00.209Z,81.51
2022-12-29T12:01:59.589Z,81.60
2022-12-29T12:02:59.836Z,82.01
2022-12-29T12:03:59.498Z,82.67
2022-12-29T12:04:59.408Z,81.95
2022-12-29T12:06:00.211Z,82.05
2022-12-29T12:06:59.435Z,81.65
2022-12-29T12:08:00.206Z,82.77
2022-12-29T12:08:59.364Z,81.95
2022-12-29T12:10:06.532Z,82.42
2022-12-29T12:11:00.352Z,82.56
2022-12-29T12:12:00.215Z,82.26
2022-12-29T12:12:59.339Z,82.67
2022-12-29T12:13:59.340Z,82.36
2022-12-29T12:14:59.317Z,82.01
2022-12-29T12:16:03.340Z,81.34
2022-12-29T12:16:59.366Z,81.91
2022-12-29T12:18:02.213Z,81.30
2022-12-29T12:19:01.237Z,81.51
2022-12-29T12:19:59.243Z,81.40
2022-12-29T12:20:59.253Z,81.30
2022-12-29T12:21:59.229Z,81.20
2022-12-29T12:22:59.230Z,81.81
2022-12-29T12:23:59.242Z,82.26
2022-12-29T12:24:59.184Z,82.46
2022-12-29T12:25:59.180Z,82.97
2022-12-29T12:26:59.195Z,82.15
2022-12-29T12:27:59.162Z,82.56
2022-12-29T12:29:01.721Z,82.26
2022-12-29T12:29:59.165Z,82.56
2022-12-29T12:30:59.194Z,82.05
2022-12-29T12:31:59.129Z,82.63
2022-12-29T12:32:59.131Z,81.44
2022-12-29T12:33:59.089Z,81.85
2022-12-29T12:34:59.076Z,82.77
2022-12-29T12:35:59.072Z,82.46
2022-12-29T12:36:59.724Z,82.77
2022-12-29T12:37:59.234Z,82.56
2022-12-29T12:38:59.053Z,82.56
2022-12-29T12:39:59.019Z,82.56
2022-12-29T12:40:59.716Z,82.15
2022-12-29T12:41:59.708Z,82.46
2022-12-29T12:42:59.715Z,82.87
2022-12-29T12:43:58.995Z,81.95
2022-12-29T12:44:59.724Z,82.15
2022-12-29T12:46:01.788Z,82.05
2022-12-29T12:46:59.026Z,82.87
2022-12-29T12:47:59.230Z,82.26
2022-12-29T12:48:58.937Z,82.56
2022-12-29T12:49:58.909Z,82.15
2022-12-29T12:50:58.896Z,82.05
2022-12-29T12:52:04.799Z,81.95
2022-12-29T12:53:01.743Z,82.46
2022-12-29T12:54:05.733Z,82.77
2022-12-29T12:54:58.877Z,82.40
2022-12-29T12:55:58.843Z,82.46
2022-12-29T12:57:01.716Z,82.67
2022-12-29T12:57:58.846Z,82.67